sensor_id;sensor_type;location;lat;lon;timestamp;temperature;humidity
6824;DHT22;58633;49.470;11.004;2023-09-07T00:01:53;20.90;61.40
6824;DHT22;58633;49.470;11.004;2023-09-07T00:04:20;20.70;61.20
6824;DHT22;58633;49.470;11.004;2023-09-07T00:06:48;20.70;61.30
6824;DHT22;58633;49.470;11.004;2023-09-07T00:09:15;20.70;61.40
6824;DHT22;58633;49.470;11.004;2023-09-07T00:11:41;20.70;61.60
6824;DHT22;58633;49.470;11.004;2023-09-07T00:14:07;21.20;62.30
6824;DHT22;58633;49.470;11.004;2023-09-07T00:16:33;20.60;62.10
6824;DHT22;58633;49.470;11.004;2023-09-07T00:19:04;20.50;62.30
6824;DHT22;58633;49.470;11.004;2023-09-07T00:21:29;20.40;62.50
6824;DHT22;58633;49.470;11.004;2023-09-07T00:23:55;21.00;63.20
6824;DHT22;58633;49.470;11.004;2023-09-07T00:26:20;20.30;62.50
6824;DHT22;58633;49.470;11.004;2023-09-07T00:28:46;20.30;62.60
6824;DHT22;58633;49.470;11.004;2023-09-07T00:31:12;18.90;61.40
6824;DHT22;58633;49.470;11.004;2023-09-07T00:33:37;20.20;62.90
6824;DHT22;58633;49.470;11.004;2023-09-07T00:36:03;20.20;63.00
6824;DHT22;58633;49.470;11.004;2023-09-07T00:38:29;20.10;62.90
6824;DHT22;58633;49.470;11.004;2023-09-07T00:40:54;20.20;63.10
6824;DHT22;58633;49.470;11.004;2023-09-07T00:43:20;20.00;63.10
6824;DHT22;58633;49.470;11.004;2023-09-07T00:45:45;20.00;63.30
6824;DHT22;58633;49.470;11.004;2023-09-07T00:48:12;20.00;63.60
6824;DHT22;58633;49.470;11.004;2023-09-07T00:50:39;19.90;63.50
6824;DHT22;58633;49.470;11.004;2023-09-07T00:53:05;20.50;64.30
6824;DHT22;58633;49.470;11.004;2023-09-07T00:55:33;19.90;63.70
6824;DHT22;58633;49.470;11.004;2023-09-07T00:58:00;19.90;63.70
6824;DHT22;58633;49.470;11.004;2023-09-07T01:00:26;19.90;63.80
6824;DHT22;58633;49.470;11.004;2023-09-07T01:02:52;19.80;63.70
6824;DHT22;58633;49.470;11.004;2023-09-07T01:05:20;19.70;63.80
6824;DHT22;58633;49.470;11.004;2023-09-07T01:07:49;19.70;64.00
6824;DHT22;58633;49.470;11.004;2023-09-07T01:10:16;19.70;64.20
6824;DHT22;58633;49.470;11.004;2023-09-07T01:12:41;19.70;64.10
6824;DHT22;58633;49.470;11.004;2023-09-07T01:15:07;19.70;64.30
6824;DHT22;58633;49.470;11.004;2023-09-07T01:17:34;19.70;64.20
6824;DHT22;58633;49.470;11.004;2023-09-07T01:20:03;19.60;64.00
6824;DHT22;58633;49.470;11.004;2023-09-07T01:22:31;19.70;64.20
6824;DHT22;58633;49.470;11.004;2023-09-07T01:24:57;19.70;64.30
6824;DHT22;58633;49.470;11.004;2023-09-07T01:27:24;19.70;64.30
6824;DHT22;58633;49.470;11.004;2023-09-07T01:29:49;19.50;64.40
6824;DHT22;58633;49.470;11.004;2023-09-07T01:32:16;19.60;64.60
6824;DHT22;58633;49.470;11.004;2023-09-07T01:34:41;19.50;64.50
6824;DHT22;58633;49.470;11.004;2023-09-07T01:37:07;19.50;64.60
6824;DHT22;58633;49.470;11.004;2023-09-07T01:39:32;19.40;64.60
6824;DHT22;58633;49.470;11.004;2023-09-07T01:41:58;19.50;64.70
6824;DHT22;58633;49.470;11.004;2023-09-07T01:44:23;19.40;64.90
6824;DHT22;58633;49.470;11.004;2023-09-07T01:46:49;19.30;64.90
6824;DHT22;58633;49.470;11.004;2023-09-07T01:49:14;19.30;65.00
6824;DHT22;58633;49.470;11.004;2023-09-07T01:51:40;19.20;64.90
6824;DHT22;58633;49.470;11.004;2023-09-07T01:54:05;19.10;64.90
6824;DHT22;58633;49.470;11.004;2023-09-07T01:56:31;19.10;65.00
6824;DHT22;58633;49.470;11.004;2023-09-07T01:58:57;19.10;65.20
6824;DHT22;58633;49.470;11.004;2023-09-07T02:01:30;18.90;65.20
6824;DHT22;58633;49.470;11.004;2023-09-07T02:03:56;19.00;65.60
6824;DHT22;58633;49.470;11.004;2023-09-07T02:06:22;19.00;66.30
6824;DHT22;58633;49.470;11.004;2023-09-07T02:08:48;19.10;65.70
6824;DHT22;58633;49.470;11.004;2023-09-07T02:11:14;19.00;65.60
6824;DHT22;58633;49.470;11.004;2023-09-07T02:13:43;19.10;65.60
6824;DHT22;58633;49.470;11.004;2023-09-07T02:16:09;19.50;66.00
6824;DHT22;58633;49.470;11.004;2023-09-07T02:18:36;19.00;65.60
6824;DHT22;58633;49.470;11.004;2023-09-07T02:21:03;18.90;65.50
6824;DHT22;58633;49.470;11.004;2023-09-07T02:23:32;18.90;65.60
6824;DHT22;58633;49.470;11.004;2023-09-07T02:25:58;18.80;65.50
6824;DHT22;58633;49.470;11.004;2023-09-07T02:28:25;18.70;65.70
6824;DHT22;58633;49.470;11.004;2023-09-07T02:30:54;18.60;65.80
6824;DHT22;58633;49.470;11.004;2023-09-07T02:33:19;18.60;66.00
6824;DHT22;58633;49.470;11.004;2023-09-07T02:35:45;18.70;66.30
6824;DHT22;58633;49.470;11.004;2023-09-07T02:38:12;19.00;66.50
6824;DHT22;58633;49.470;11.004;2023-09-07T02:40:45;18.60;66.00
6824;DHT22;58633;49.470;11.004;2023-09-07T02:43:11;18.50;66.10
6824;DHT22;58633;49.470;11.004;2023-09-07T02:45:37;18.50;66.10
6824;DHT22;58633;49.470;11.004;2023-09-07T02:48:03;18.60;66.30
6824;DHT22;58633;49.470;11.004;2023-09-07T02:50:32;18.50;66.30
6824;DHT22;58633;49.470;11.004;2023-09-07T02:52:58;18.40;66.30
6824;DHT22;58633;49.470;11.004;2023-09-07T02:55:24;18.60;66.30
6824;DHT22;58633;49.470;11.004;2023-09-07T02:57:49;18.40;66.40
6824;DHT22;58633;49.470;11.004;2023-09-07T03:00:15;18.40;67.20
6824;DHT22;58633;49.470;11.004;2023-09-07T03:02:45;18.30;66.60
6824;DHT22;58633;49.470;11.004;2023-09-07T03:05:11;18.40;66.50
6824;DHT22;58633;49.470;11.004;2023-09-07T03:07:37;18.40;66.60
6824;DHT22;58633;49.470;11.004;2023-09-07T03:10:04;18.40;66.50
6824;DHT22;58633;49.470;11.004;2023-09-07T03:12:30;18.30;66.60
6824;DHT22;58633;49.470;11.004;2023-09-07T03:14:55;18.30;66.70
6824;DHT22;58633;49.470;11.004;2023-09-07T03:17:21;18.20;66.70
6824;DHT22;58633;49.470;11.004;2023-09-07T03:19:47;18.20;66.70
6824;DHT22;58633;49.470;11.004;2023-09-07T03:22:13;18.00;66.80
6824;DHT22;58633;49.470;11.004;2023-09-07T03:24:39;18.00;66.90
6824;DHT22;58633;49.470;11.004;2023-09-07T03:27:05;17.90;67.20
6824;DHT22;58633;49.470;11.004;2023-09-07T03:29:31;18.10;67.80
6824;DHT22;58633;49.470;11.004;2023-09-07T03:31:59;17.90;67.30
6824;DHT22;58633;49.470;11.004;2023-09-07T03:34:25;17.90;67.30
6824;DHT22;58633;49.470;11.004;2023-09-07T03:36:50;17.90;67.10
6824;DHT22;58633;49.470;11.004;2023-09-07T03:39:16;18.00;67.30
6824;DHT22;58633;49.470;11.004;2023-09-07T03:41:44;20.20;69.60
6824;DHT22;58633;49.470;11.004;2023-09-07T03:44:09;17.90;67.30
6824;DHT22;58633;49.470;11.004;2023-09-07T03:46:35;17.90;67.30
6824;DHT22;58633;49.470;11.004;2023-09-07T03:49:00;19.30;68.70
6824;DHT22;58633;49.470;11.004;2023-09-07T03:51:26;17.80;67.30
6824;DHT22;58633;49.470;11.004;2023-09-07T03:53:51;17.90;67.40
6824;DHT22;58633;49.470;11.004;2023-09-07T03:56:17;19.00;68.50
6824;DHT22;58633;49.470;11.004;2023-09-07T03:58:42;17.70;67.30
6824;DHT22;58633;49.470;11.004;2023-09-07T04:01:08;17.70;67.40
6824;DHT22;58633;49.470;11.004;2023-09-07T04:03:34;17.70;67.50
6824;DHT22;58633;49.470;11.004;2023-09-07T04:05:59;17.70;67.40
6824;DHT22;58633;49.470;11.004;2023-09-07T04:08:25;17.70;67.40
6824;DHT22;58633;49.470;11.004;2023-09-07T04:10:50;17.70;67.50
6824;DHT22;58633;49.470;11.004;2023-09-07T04:13:16;17.60;67.30
6824;DHT22;58633;49.470;11.004;2023-09-07T04:15:42;17.70;67.60
6824;DHT22;58633;49.470;11.004;2023-09-07T04:18:09;17.60;67.50
6824;DHT22;58633;49.470;11.004;2023-09-07T04:20:35;17.60;67.60
6824;DHT22;58633;49.470;11.004;2023-09-07T04:23:00;17.60;67.70
6824;DHT22;58633;49.470;11.004;2023-09-07T04:25:26;17.50;67.70
6824;DHT22;58633;49.470;11.004;2023-09-07T04:27:51;17.50;67.80
6824;DHT22;58633;49.470;11.004;2023-09-07T04:30:17;17.50;68.20
6824;DHT22;58633;49.470;11.004;2023-09-07T04:32:43;17.40;67.60
6824;DHT22;58633;49.470;11.004;2023-09-07T04:35:08;17.40;67.90
6824;DHT22;58633;49.470;11.004;2023-09-07T04:37:34;17.50;68.00
6824;DHT22;58633;49.470;11.004;2023-09-07T04:39:59;17.50;67.90
6824;DHT22;58633;49.470;11.004;2023-09-07T04:42:25;17.40;67.80
6824;DHT22;58633;49.470;11.004;2023-09-07T04:44:51;17.30;67.70
6824;DHT22;58633;49.470;11.004;2023-09-07T04:47:16;17.40;67.90
6824;DHT22;58633;49.470;11.004;2023-09-07T04:49:42;17.40;67.80
6824;DHT22;58633;49.470;11.004;2023-09-07T04:52:07;17.40;67.80
6824;DHT22;58633;49.470;11.004;2023-09-07T04:54:34;17.20;67.70
6824;DHT22;58633;49.470;11.004;2023-09-07T04:57:00;17.20;67.90
6824;DHT22;58633;49.470;11.004;2023-09-07T04:59:25;17.20;68.20
6824;DHT22;58633;49.470;11.004;2023-09-07T05:01:51;17.20;68.40
6824;DHT22;58633;49.470;11.004;2023-09-07T05:04:16;17.20;68.50
6824;DHT22;58633;49.470;11.004;2023-09-07T05:06:42;17.30;68.50
6824;DHT22;58633;49.470;11.004;2023-09-07T05:09:08;17.30;68.40
6824;DHT22;58633;49.470;11.004;2023-09-07T05:11:34;17.20;68.30
6824;DHT22;58633;49.470;11.004;2023-09-07T05:14:01;17.30;68.40
6824;DHT22;58633;49.470;11.004;2023-09-07T05:16:27;17.30;68.30
6824;DHT22;58633;49.470;11.004;2023-09-07T05:18:53;17.20;68.10
6824;DHT22;58633;49.470;11.004;2023-09-07T05:21:18;17.30;68.20
6824;DHT22;58633;49.470;11.004;2023-09-07T05:23:44;17.30;68.40
6824;DHT22;58633;49.470;11.004;2023-09-07T05:26:10;17.30;68.50
6824;DHT22;58633;49.470;11.004;2023-09-07T05:28:35;19.60;70.70
6824;DHT22;58633;49.470;11.004;2023-09-07T05:31:01;17.30;68.60
6824;DHT22;58633;49.470;11.004;2023-09-07T05:33:26;17.20;68.50
6824;DHT22;58633;49.470;11.004;2023-09-07T05:35:52;17.30;68.70
6824;DHT22;58633;49.470;11.004;2023-09-07T05:38:17;17.20;68.70
6824;DHT22;58633;49.470;11.004;2023-09-07T05:40:44;17.30;68.80
6824;DHT22;58633;49.470;11.004;2023-09-07T05:43:10;17.30;68.70
6824;DHT22;58633;49.470;11.004;2023-09-07T05:45:38;17.40;69.00
6824;DHT22;58633;49.470;11.004;2023-09-07T05:48:05;17.30;68.80
6824;DHT22;58633;49.470;11.004;2023-09-07T05:50:35;17.30;69.00
6824;DHT22;58633;49.470;11.004;2023-09-07T05:53:02;17.40;69.20
6824;DHT22;58633;49.470;11.004;2023-09-07T05:55:27;17.40;69.20
6824;DHT22;58633;49.470;11.004;2023-09-07T05:57:57;17.50;69.30
6824;DHT22;58633;49.470;11.004;2023-09-07T06:00:23;17.50;69.40
6824;DHT22;58633;49.470;11.004;2023-09-07T06:02:49;17.50;69.40
6824;DHT22;58633;49.470;11.004;2023-09-07T06:05:14;17.60;69.40
6824;DHT22;58633;49.470;11.004;2023-09-07T06:07:40;18.60;70.30
6824;DHT22;58633;49.470;11.004;2023-09-07T06:10:06;17.70;69.50
6824;DHT22;58633;49.470;11.004;2023-09-07T06:12:32;17.60;69.40
6824;DHT22;58633;49.470;11.004;2023-09-07T06:15:01;17.70;69.60
6824;DHT22;58633;49.470;11.004;2023-09-07T06:17:28;17.70;69.60
6824;DHT22;58633;49.470;11.004;2023-09-07T06:19:54;17.80;69.60
6824;DHT22;58633;49.470;11.004;2023-09-07T06:22:20;19.10;70.80
6824;DHT22;58633;49.470;11.004;2023-09-07T06:24:45;18.00;69.70
6824;DHT22;58633;49.470;11.004;2023-09-07T06:27:11;17.90;69.50
6824;DHT22;58633;49.470;11.004;2023-09-07T06:29:36;17.90;69.50
6824;DHT22;58633;49.470;11.004;2023-09-07T06:32:02;18.00;69.50
6824;DHT22;58633;49.470;11.004;2023-09-07T06:34:28;17.90;69.30
6824;DHT22;58633;49.470;11.004;2023-09-07T06:36:53;18.10;69.30
6824;DHT22;58633;49.470;11.004;2023-09-07T06:39:19;18.40;69.50
6824;DHT22;58633;49.470;11.004;2023-09-07T06:41:47;18.30;69.40
6824;DHT22;58633;49.470;11.004;2023-09-07T06:44:13;18.20;69.10
6824;DHT22;58633;49.470;11.004;2023-09-07T06:46:39;18.30;69.20
6824;DHT22;58633;49.470;11.004;2023-09-07T06:49:05;18.30;69.30
6824;DHT22;58633;49.470;11.004;2023-09-07T06:51:31;18.30;69.00
6824;DHT22;58633;49.470;11.004;2023-09-07T06:53:57;18.50;69.30
6824;DHT22;58633;49.470;11.004;2023-09-07T06:56:22;18.60;69.00
6824;DHT22;58633;49.470;11.004;2023-09-07T06:58:49;19.30;80.70
6824;DHT22;58633;49.470;11.004;2023-09-07T07:01:14;18.90;75.60
6824;DHT22;58633;49.470;11.004;2023-09-07T07:03:41;19.20;67.00
6824;DHT22;58633;49.470;11.004;2023-09-07T07:06:06;18.90;66.60
6824;DHT22;58633;49.470;11.004;2023-09-07T07:18:16;19.40;73.80
6824;DHT22;58633;49.470;11.004;2023-09-07T07:20:42;19.90;71.90
6824;DHT22;58633;49.470;11.004;2023-09-07T07:25:35;19.50;72.90
6824;DHT22;58633;49.470;11.004;2023-09-07T07:28:03;20.30;70.30
6824;DHT22;58633;49.470;11.004;2023-09-07T07:35:23;20.10;70.20
6824;DHT22;58633;49.470;11.004;2023-09-07T07:37:49;20.40;68.50
6824;DHT22;58633;49.470;11.004;2023-09-07T07:45:09;20.20;66.40
6824;DHT22;58633;49.470;11.004;2023-09-07T07:54:54;20.50;67.90
6824;DHT22;58633;49.470;11.004;2023-09-07T07:57:20;20.10;69.20
6824;DHT22;58633;49.470;11.004;2023-09-07T08:02:11;21.00;69.50
6824;DHT22;58633;49.470;11.004;2023-09-07T08:07:03;21.40;71.80
6824;DHT22;58633;49.470;11.004;2023-09-07T08:09:33;20.60;68.80
6824;DHT22;58633;49.470;11.004;2023-09-07T08:11:59;21.60;69.40
6824;DHT22;58633;49.470;11.004;2023-09-07T08:14:28;20.40;68.50
6824;DHT22;58633;49.470;11.004;2023-09-07T08:16:54;20.70;68.30
6824;DHT22;58633;49.470;11.004;2023-09-07T08:19:19;21.20;65.80
6824;DHT22;58633;49.470;11.004;2023-09-07T08:21:45;21.10;61.40
6824;DHT22;58633;49.470;11.004;2023-09-07T08:24:11;21.70;70.30
6824;DHT22;58633;49.470;11.004;2023-09-07T08:29:04;21.30;62.30
6824;DHT22;58633;49.470;11.004;2023-09-07T08:31:37;22.10;69.70
6824;DHT22;58633;49.470;11.004;2023-09-07T08:34:05;22.40;70.60
6824;DHT22;58633;49.470;11.004;2023-09-07T08:36:31;20.90;70.90
6824;DHT22;58633;49.470;11.004;2023-09-07T08:43:59;22.00;63.30
6824;DHT22;58633;49.470;11.004;2023-09-07T08:46:26;21.60;72.10
6824;DHT22;58633;49.470;11.004;2023-09-07T08:48:54;23.00;74.50
6824;DHT22;58633;49.470;11.004;2023-09-07T08:51:20;21.90;72.70
6824;DHT22;58633;49.470;11.004;2023-09-07T08:53:48;21.90;66.10
6824;DHT22;58633;49.470;11.004;2023-09-07T08:56:14;22.60;73.50
6824;DHT22;58633;49.470;11.004;2023-09-07T09:03:36;21.60;73.10
6824;DHT22;58633;49.470;11.004;2023-09-07T09:06:03;22.50;74.80
6824;DHT22;58633;49.470;11.004;2023-09-07T09:08:28;21.30;66.10
6824;DHT22;58633;49.470;11.004;2023-09-07T09:13:30;22.70;73.20
6824;DHT22;58633;49.470;11.004;2023-09-07T09:15:59;22.90;72.50
6824;DHT22;58633;49.470;11.004;2023-09-07T09:18:24;22.70;63.00
6824;DHT22;58633;49.470;11.004;2023-09-07T09:20:52;22.20;70.80
6824;DHT22;58633;49.470;11.004;2023-09-07T09:23:18;23.20;71.80
6824;DHT22;58633;49.470;11.004;2023-09-07T09:25:43;24.00;72.20
6824;DHT22;58633;49.470;11.004;2023-09-07T09:28:09;22.50;71.20
6824;DHT22;58633;49.470;11.004;2023-09-07T09:30:36;22.60;69.90
6824;DHT22;58633;49.470;11.004;2023-09-07T09:33:02;22.80;70.90
6824;DHT22;58633;49.470;11.004;2023-09-07T09:35:28;23.10;68.60
6824;DHT22;58633;49.470;11.004;2023-09-07T09:37:55;23.60;67.30
6824;DHT22;58633;49.470;11.004;2023-09-07T09:40:21;23.30;60.60
6824;DHT22;58633;49.470;11.004;2023-09-07T09:42:47;24.60;67.20
6824;DHT22;58633;49.470;11.004;2023-09-07T09:45:14;23.40;64.70
6824;DHT22;58633;49.470;11.004;2023-09-07T09:47:42;23.30;64.00
6824;DHT22;58633;49.470;11.004;2023-09-07T09:50:09;23.40;62.90
6824;DHT22;58633;49.470;11.004;2023-09-07T09:52:35;24.60;64.10
6824;DHT22;58633;49.470;11.004;2023-09-07T09:55:06;24.00;64.00
6824;DHT22;58633;49.470;11.004;2023-09-07T09:57:34;23.90;59.20
6824;DHT22;58633;49.470;11.004;2023-09-07T10:02:36;24.70;61.00
6824;DHT22;58633;49.470;11.004;2023-09-07T10:05:03;24.00;59.80
6824;DHT22;58633;49.470;11.004;2023-09-07T10:07:49;24.10;59.70
6824;DHT22;58633;49.470;11.004;2023-09-07T10:10:19;24.20;59.30
6824;DHT22;58633;49.470;11.004;2023-09-07T10:12:51;24.50;58.60
6824;DHT22;58633;49.470;11.004;2023-09-07T10:15:23;24.90;57.90
6824;DHT22;58633;49.470;11.004;2023-09-07T10:17:49;24.90;57.30
6824;DHT22;58633;49.470;11.004;2023-09-07T10:20:19;25.20;57.00
6824;DHT22;58633;49.470;11.004;2023-09-07T10:22:46;25.30;56.40
6824;DHT22;58633;49.470;11.004;2023-09-07T10:25:19;25.70;56.20
6824;DHT22;58633;49.470;11.004;2023-09-07T10:27:45;25.60;55.60
6824;DHT22;58633;49.470;11.004;2023-09-07T10:30:12;25.90;55.50
6824;DHT22;58633;49.470;11.004;2023-09-07T10:32:39;26.10;55.20
6824;DHT22;58633;49.470;11.004;2023-09-07T10:35:15;26.40;55.00
6824;DHT22;58633;49.470;11.004;2023-09-07T10:37:44;26.30;54.60
6824;DHT22;58633;49.470;11.004;2023-09-07T10:40:10;26.50;54.50
6824;DHT22;58633;49.470;11.004;2023-09-07T10:42:37;27.50;54.60
6824;DHT22;58633;49.470;11.004;2023-09-07T10:45:13;26.60;53.50
6824;DHT22;58633;49.470;11.004;2023-09-07T10:47:44;26.80;53.00
6824;DHT22;58633;49.470;11.004;2023-09-07T10:50:12;27.00;52.70
6824;DHT22;58633;49.470;11.004;2023-09-07T10:52:41;27.00;52.40
6824;DHT22;58633;49.470;11.004;2023-09-07T10:55:08;27.10;52.10
6824;DHT22;58633;49.470;11.004;2023-09-07T10:57:44;27.10;51.60
6824;DHT22;58633;49.470;11.004;2023-09-07T11:00:11;27.40;51.10
6824;DHT22;58633;49.470;11.004;2023-09-07T11:02:38;27.40;50.90
6824;DHT22;58633;49.470;11.004;2023-09-07T11:05:04;27.60;50.40
6824;DHT22;58633;49.470;11.004;2023-09-07T11:07:30;27.60;50.10
6824;DHT22;58633;49.470;11.004;2023-09-07T11:09:56;27.60;49.60
6824;DHT22;58633;49.470;11.004;2023-09-07T11:12:21;27.70;49.30
6824;DHT22;58633;49.470;11.004;2023-09-07T11:14:47;27.90;49.00
6824;DHT22;58633;49.470;11.004;2023-09-07T11:17:13;27.90;48.60
6824;DHT22;58633;49.470;11.004;2023-09-07T11:19:39;28.00;48.30
6824;DHT22;58633;49.470;11.004;2023-09-07T11:22:04;28.10;47.80
6824;DHT22;58633;49.470;11.004;2023-09-07T11:24:32;28.20;47.80
6824;DHT22;58633;49.470;11.004;2023-09-07T11:26:58;28.20;47.70
6824;DHT22;58633;49.470;11.004;2023-09-07T11:29:24;28.40;47.10
6824;DHT22;58633;49.470;11.004;2023-09-07T11:31:50;28.60;46.60
6824;DHT22;58633;49.470;11.004;2023-09-07T11:34:15;28.90;46.30
6824;DHT22;58633;49.470;11.004;2023-09-07T11:36:42;29.00;46.20
6824;DHT22;58633;49.470;11.004;2023-09-07T11:39:09;29.00;46.10
6824;DHT22;58633;49.470;11.004;2023-09-07T11:41:44;29.00;45.60
6824;DHT22;58633;49.470;11.004;2023-09-07T11:44:10;29.20;45.10
6824;DHT22;58633;49.470;11.004;2023-09-07T11:46:36;29.30;44.90
6824;DHT22;58633;49.470;11.004;2023-09-07T11:49:02;29.30;45.00
6824;DHT22;58633;49.470;11.004;2023-09-07T11:51:30;29.40;44.90
6824;DHT22;58633;49.470;11.004;2023-09-07T11:53:55;29.40;44.70
6824;DHT22;58633;49.470;11.004;2023-09-07T11:56:21;29.40;44.20
6824;DHT22;58633;49.470;11.004;2023-09-07T11:58:46;29.60;44.00
6824;DHT22;58633;49.470;11.004;2023-09-07T12:01:13;29.80;43.90
6824;DHT22;58633;49.470;11.004;2023-09-07T12:03:42;29.80;43.80
6824;DHT22;58633;49.470;11.004;2023-09-07T12:06:08;29.80;43.70
6824;DHT22;58633;49.470;11.004;2023-09-07T12:08:34;29.80;43.60
6824;DHT22;58633;49.470;11.004;2023-09-07T12:11:01;30.00;43.30
6824;DHT22;58633;49.470;11.004;2023-09-07T12:13:26;29.90;43.30
6824;DHT22;58633;49.470;11.004;2023-09-07T12:15:52;29.90;43.10
6824;DHT22;58633;49.470;11.004;2023-09-07T12:18:17;30.20;43.10
6824;DHT22;58633;49.470;11.004;2023-09-07T12:20:43;30.20;42.90
6824;DHT22;58633;49.470;11.004;2023-09-07T12:23:10;31.20;43.00
6824;DHT22;58633;49.470;11.004;2023-09-07T12:25:36;30.50;42.30
6824;DHT22;58633;49.470;11.004;2023-09-07T12:28:02;31.00;42.30
6824;DHT22;58633;49.470;11.004;2023-09-07T12:30:28;30.70;41.90
6824;DHT22;58633;49.470;11.004;2023-09-07T12:32:54;30.90;42.10
6824;DHT22;58633;49.470;11.004;2023-09-07T12:35:20;32.20;42.80
6824;DHT22;58633;49.470;11.004;2023-09-07T12:37:46;30.90;41.70
6824;DHT22;58633;49.470;11.004;2023-09-07T12:40:12;30.90;41.70
6824;DHT22;58633;49.470;11.004;2023-09-07T12:42:42;31.10;41.50
6824;DHT22;58633;49.470;11.004;2023-09-07T12:45:12;31.30;41.50
6824;DHT22;58633;49.470;11.004;2023-09-07T12:47:39;31.30;41.10
6824;DHT22;58633;49.470;11.004;2023-09-07T12:50:05;31.50;41.00
6824;DHT22;58633;49.470;11.004;2023-09-07T12:52:32;31.60;41.10
6824;DHT22;58633;49.470;11.004;2023-09-07T12:54:58;33.10;42.00
6824;DHT22;58633;49.470;11.004;2023-09-07T12:57:24;32.00;40.60
6824;DHT22;58633;49.470;11.004;2023-09-07T12:59:49;32.10;40.40
6824;DHT22;58633;49.470;11.004;2023-09-07T13:02:15;32.00;40.20
6824;DHT22;58633;49.470;11.004;2023-09-07T13:04:40;32.10;40.20
6824;DHT22;58633;49.470;11.004;2023-09-07T13:07:06;32.20;39.90
6824;DHT22;58633;49.470;11.004;2023-09-07T13:09:31;32.20;39.90
6824;DHT22;58633;49.470;11.004;2023-09-07T13:11:57;32.40;39.60
6824;DHT22;58633;49.470;11.004;2023-09-07T13:14:22;32.60;39.60
6824;DHT22;58633;49.470;11.004;2023-09-07T13:16:48;32.50;39.60
6824;DHT22;58633;49.470;11.004;2023-09-07T13:19:16;32.60;39.50
6824;DHT22;58633;49.470;11.004;2023-09-07T13:21:41;32.60;39.60
6824;DHT22;58633;49.470;11.004;2023-09-07T13:24:07;32.60;39.60
6824;DHT22;58633;49.470;11.004;2023-09-07T13:26:32;32.60;39.70
6824;DHT22;58633;49.470;11.004;2023-09-07T13:28:58;32.70;39.60
6824;DHT22;58633;49.470;11.004;2023-09-07T13:31:23;32.80;39.70
6824;DHT22;58633;49.470;11.004;2023-09-07T13:33:49;32.70;39.50
6824;DHT22;58633;49.470;11.004;2023-09-07T13:36:15;32.90;39.90
6824;DHT22;58633;49.470;11.004;2023-09-07T13:38:40;32.70;39.70
6824;DHT22;58633;49.470;11.004;2023-09-07T13:41:06;33.30;40.00
6824;DHT22;58633;49.470;11.004;2023-09-07T13:43:32;32.90;39.30
6824;DHT22;58633;49.470;11.004;2023-09-07T13:45:57;34.70;40.60
6824;DHT22;58633;49.470;11.004;2023-09-07T13:48:23;32.90;39.30
6824;DHT22;58633;49.470;11.004;2023-09-07T13:50:48;32.90;39.30
6824;DHT22;58633;49.470;11.004;2023-09-07T13:53:14;32.90;39.30
6824;DHT22;58633;49.470;11.004;2023-09-07T13:55:40;32.90;39.40
6824;DHT22;58633;49.470;11.004;2023-09-07T13:58:07;35.00;40.90
6824;DHT22;58633;49.470;11.004;2023-09-07T14:00:32;32.90;39.50
6824;DHT22;58633;49.470;11.004;2023-09-07T14:02:58;35.00;41.00
6824;DHT22;58633;49.470;11.004;2023-09-07T14:05:23;34.70;40.60
6824;DHT22;58633;49.470;11.004;2023-09-07T14:07:49;33.00;39.30
6824;DHT22;58633;49.470;11.004;2023-09-07T14:10:15;32.80;38.90
6824;DHT22;58633;49.470;11.004;2023-09-07T14:12:40;31.60;37.80
6824;DHT22;58633;49.470;11.004;2023-09-07T14:15:08;33.20;39.10
6824;DHT22;58633;49.470;11.004;2023-09-07T14:17:34;33.10;39.10
6824;DHT22;58633;49.470;11.004;2023-09-07T14:19:59;33.20;39.10
6824;DHT22;58633;49.470;11.004;2023-09-07T14:22:25;33.80;39.60
6824;DHT22;58633;49.470;11.004;2023-09-07T14:24:50;34.60;39.70
6824;DHT22;58633;49.470;11.004;2023-09-07T14:27:16;33.50;38.60
6824;DHT22;58633;49.470;11.004;2023-09-07T14:29:41;33.40;38.50
6824;DHT22;58633;49.470;11.004;2023-09-07T14:32:07;33.40;38.70
6824;DHT22;58633;49.470;11.004;2023-09-07T14:34:32;33.40;38.50
6824;DHT22;58633;49.470;11.004;2023-09-07T14:36:58;35.20;39.60
6824;DHT22;58633;49.470;11.004;2023-09-07T14:39:24;33.40;38.50
6824;DHT22;58633;49.470;11.004;2023-09-07T14:41:50;33.40;38.50
6824;DHT22;58633;49.470;11.004;2023-09-07T14:44:18;33.60;38.70
6824;DHT22;58633;49.470;11.004;2023-09-07T14:46:44;33.50;38.60
6824;DHT22;58633;49.470;11.004;2023-09-07T14:49:10;33.60;38.40
6824;DHT22;58633;49.470;11.004;2023-09-07T14:51:35;33.40;38.60
6824;DHT22;58633;49.470;11.004;2023-09-07T14:54:00;33.50;38.60
6824;DHT22;58633;49.470;11.004;2023-09-07T14:56:26;35.10;39.80
6824;DHT22;58633;49.470;11.004;2023-09-07T14:58:53;33.50;38.90
6824;DHT22;58633;49.470;11.004;2023-09-07T15:01:19;33.50;38.40
6824;DHT22;58633;49.470;11.004;2023-09-07T15:03:45;33.60;38.40
6824;DHT22;58633;49.470;11.004;2023-09-07T15:06:10;33.60;38.30
6824;DHT22;58633;49.470;11.004;2023-09-07T15:08:38;34.80;39.30
6824;DHT22;58633;49.470;11.004;2023-09-07T15:11:04;34.40;38.90
6824;DHT22;58633;49.470;11.004;2023-09-07T15:13:29;35.20;39.40
6824;DHT22;58633;49.470;11.004;2023-09-07T15:15:55;36.30;39.80
6824;DHT22;58633;49.470;11.004;2023-09-07T15:18:20;33.70;38.30
6824;DHT22;58633;49.470;11.004;2023-09-07T15:20:46;33.70;38.20
6824;DHT22;58633;49.470;11.004;2023-09-07T15:23:11;35.80;39.60
6824;DHT22;58633;49.470;11.004;2023-09-07T15:25:37;33.70;38.40
6824;DHT22;58633;49.470;11.004;2023-09-07T15:28:02;33.60;37.80
6824;DHT22;58633;49.470;11.004;2023-09-07T15:30:28;33.60;37.80
6824;DHT22;58633;49.470;11.004;2023-09-07T15:32:53;33.50;38.10
6824;DHT22;58633;49.470;11.004;2023-09-07T15:35:19;34.00;38.00
6824;DHT22;58633;49.470;11.004;2023-09-07T15:37:45;34.30;37.30
6824;DHT22;58633;49.470;11.004;2023-09-07T15:40:14;34.50;36.70
6824;DHT22;58633;49.470;11.004;2023-09-07T15:42:39;34.60;36.70
6824;DHT22;58633;49.470;11.004;2023-09-07T15:45:06;34.50;36.90
6824;DHT22;58633;49.470;11.004;2023-09-07T15:47:32;34.40;37.20
6824;DHT22;58633;49.470;11.004;2023-09-07T15:49:59;34.30;37.60
6824;DHT22;58633;49.470;11.004;2023-09-07T15:52:25;34.10;37.40
6824;DHT22;58633;49.470;11.004;2023-09-07T15:54:51;34.00;37.70
6824;DHT22;58633;49.470;11.004;2023-09-07T15:57:17;34.70;37.80
6824;DHT22;58633;49.470;11.004;2023-09-07T15:59:43;34.20;37.00
6824;DHT22;58633;49.470;11.004;2023-09-07T16:02:08;34.40;37.10
6824;DHT22;58633;49.470;11.004;2023-09-07T16:04:34;34.60;37.10
6824;DHT22;58633;49.470;11.004;2023-09-07T16:06:59;35.00;37.30
6824;DHT22;58633;49.470;11.004;2023-09-07T16:09:25;34.80;37.00
6824;DHT22;58633;49.470;11.004;2023-09-07T16:11:51;34.30;36.80
6824;DHT22;58633;49.470;11.004;2023-09-07T16:14:17;35.60;37.50
6824;DHT22;58633;49.470;11.004;2023-09-07T16:16:43;36.10;37.70